Time;durP1;ratioP1;P1;durP2;ratioP2;P2;SDS_P1;SDS_P2;PMS_P1;PMS_P2;Temp;Humidity;BMP_temperature;BMP_pressure;BME280_temperature;BME280_humidity;BME280_pressure;Samples;Min_cycle;Max_cycle;Signal;HPM_P1;HPM_P2
2022/10/20 00:01:11;;;;;;;6.60;4.60;;;12.00;99.90;12.90;97725.00;;;;5070333;28;20231;-88
2022/10/20 00:03:59;;;;;;;8.80;4.73;;;11.90;99.90;12.80;97734.00;;;;5060420;28;20204;-89
2022/10/20 00:06:48;;;;;;;6.07;4.60;;;11.90;99.90;12.90;97731.00;;;;5061271;28;20208;-88
2022/10/20 00:09:38;;;;;;;11.40;4.80;;;11.80;99.90;13.00;97732.00;;;;5052817;28;20322;-88
2022/10/20 00:12:27;;;;;;;4.97;3.87;;;11.80;99.90;13.20;97722.00;;;;5065695;28;20208;-88
2022/10/20 00:15:16;;;;;;;5.53;4.20;;;11.90;99.90;13.10;97719.00;;;;5068732;28;20804;-88
2022/10/20 00:18:05;;;;;;;4.53;4.13;;;11.90;99.90;13.30;97730.00;;;;5069586;28;20200;-88
2022/10/20 00:20:54;;;;;;;9.67;3.80;;;11.90;99.90;13.40;97730.00;;;;5069927;28;20207;-87
2022/10/20 00:23:42;;;;;;;7.30;3.93;;;11.90;99.90;13.20;97723.00;;;;5069958;28;20208;-87
2022/10/20 00:26:33;;;;;;;7.33;4.23;;;11.90;99.90;13.40;97726.00;;;;5069599;28;20204;-88
2022/10/20 00:29:22;;;;;;;8.07;4.90;;;11.90;99.90;13.40;97733.00;;;;5056824;28;20664;-87
2022/10/20 00:32:10;;;;;;;5.57;4.47;;;12.00;99.90;13.40;97731.00;;;;5059611;28;20277;-88
2022/10/20 00:34:59;;;;;;;8.30;5.43;;;12.00;99.90;13.10;97725.00;;;;5060040;28;20285;-89
2022/10/20 00:37:48;;;;;;;11.20;4.90;;;12.00;99.90;12.90;97719.00;;;;5058473;28;20284;-88
2022/10/20 00:40:37;;;;;;;6.30;4.70;;;11.90;99.90;13.10;97720.00;;;;5064844;28;20717;-88
2022/10/20 00:43:44;;;;;;;5.93;4.50;;;11.90;99.90;13.30;97720.00;;;;5057786;28;20189;-88
2022/10/20 00:46:37;;;;;;;5.07;3.97;;;11.80;99.90;13.40;97719.00;;;;5057536;28;20203;-87
2022/10/20 00:49:26;;;;;;;6.80;4.13;;;11.90;99.90;13.50;97723.00;;;;5055221;28;20197;-87
2022/10/20 00:52:17;;;;;;;9.10;5.07;;;12.00;99.90;13.50;97718.00;;;;5056629;28;20204;-87
2022/10/20 00:55:08;;;;;;;9.43;4.40;;;12.00;99.90;13.50;97724.00;;;;5060856;28;20704;-88
2022/10/20 00:58:00;;;;;;;3.70;3.40;;;12.00;99.90;13.40;97723.00;;;;5056302;28;20210;-87
2022/10/20 01:00:53;;;;;;;5.43;4.90;;;12.00;99.90;13.30;97713.00;;;;5069952;28;20203;-87
2022/10/20 01:03:46;;;;;;;6.90;3.97;;;12.00;99.90;13.30;97707.00;;;;5065070;28;20262;-88
2022/10/20 01:06:35;;;;;;;5.97;4.10;;;11.90;99.90;13.10;97702.00;;;;5054618;28;20212;-87
2022/10/20 01:09:23;;;;;;;14.37;4.30;;;11.90;99.90;13.10;97709.00;;;;5064372;28;20234;-88
2022/10/20 01:12:27;;;;;;;5.93;4.03;;;11.80;99.90;13.20;97698.00;;;;5058789;28;20697;-87
2022/10/20 01:15:25;;;;;;;8.00;4.43;;;11.80;99.90;13.20;97700.00;;;;5068913;28;20231;-87
2022/10/20 01:18:23;;;;;;;5.80;3.97;;;11.80;99.90;13.30;97696.00;;;;5069266;28;20620;-87
2022/10/20 01:22:00;;;;;;;11.43;4.27;;;11.80;99.90;13.50;97698.00;;;;5069525;28;20215;-87
2022/10/20 01:25:05;;;;;;;4.20;3.20;;;11.90;99.90;13.30;97698.00;;;;5071113;28;20228;-87
2022/10/20 01:27:59;;;;;;;6.67;3.93;;;11.90;99.90;13.40;97686.00;;;;5063381;28;20249;-87
2022/10/20 01:30:57;;;;;;;8.03;3.73;;;11.90;99.90;13.40;97693.00;;;;5068126;28;20596;-87
2022/10/20 01:33:55;;;;;;;4.70;3.83;;;11.90;99.90;13.50;97691.00;;;;5065225;28;20212;-87
2022/10/20 01:36:54;;;;;;;6.83;4.33;;;11.90;99.90;13.40;97697.00;;;;5066750;28;20212;-88
2022/10/20 01:39:50;;;;;;;4.13;3.40;;;11.90;99.90;13.30;97690.00;;;;5071937;28;20199;-89
2022/10/20 01:42:40;;;;;;;4.73;4.23;;;11.90;99.90;13.40;97685.00;;;;5073226;28;20200;-88
2022/10/20 01:45:34;;;;;;;5.87;3.83;;;11.90;99.90;13.40;97686.00;;;;5070779;28;20824;-87
2022/10/20 01:48:28;;;;;;;11.83;3.97;;;11.90;99.90;13.40;97680.00;;;;5064484;28;20188;-87
2022/10/20 01:51:17;;;;;;;4.47;4.03;;;11.90;99.90;13.30;97670.00;;;;5063147;28;20223;-87
2022/10/20 01:54:06;;;;;;;3.87;3.47;;;11.90;99.90;13.40;97677.00;;;;5071364;28;20211;-87
2022/10/20 01:57:22;;;;;;;9.87;4.57;;;11.90;99.90;13.40;97678.00;;;;5072957;28;20829;-87
2022/10/20 02:00:14;;;;;;;3.80;3.50;;;11.90;99.90;13.40;97680.00;;;;5072476;28;20207;-89
2022/10/20 02:03:25;;;;;;;8.97;4.20;;;11.90;99.90;13.30;97677.00;;;;5067721;28;20236;-87
2022/10/20 02:06:28;;;;;;;14.17;4.40;;;11.90;99.90;12.80;97671.00;;;;5070387;28;20643;-88
2022/10/20 02:09:24;;;;;;;5.43;3.83;;;11.80;99.90;12.80;97678.00;;;;5068683;28;20221;-87
2022/10/20 02:12:18;;;;;;;6.23;3.53;;;11.70;99.90;12.90;97678.00;;;;5071462;28;20204;-87
2022/10/20 02:15:09;;;;;;;5.47;4.03;;;11.70;99.90;13.00;97676.00;;;;5069752;23;20233;-72
2022/10/20 02:18:01;;;;;;;5.63;4.00;;;11.60;99.90;13.10;97672.00;;;;5045039;28;20280;-71
2022/10/20 02:20:55;;;;;;;8.47;3.80;;;11.70;99.90;13.20;97668.00;;;;5045208;28;20201;-71
2022/10/20 02:23:47;;;;;;;4.30;3.90;;;11.70;99.90;13.20;97668.00;;;;5042067;28;20390;-72
2022/10/20 02:26:39;;;;;;;5.97;4.23;;;11.70;99.90;13.20;97663.00;;;;5039918;28;20823;-72
2022/10/20 02:29:33;;;;;;;7.47;3.13;;;11.70;99.90;13.20;97666.00;;;;5050884;28;20193;-72
2022/10/20 02:32:23;;;;;;;6.80;4.13;;;11.70;99.90;13.20;97666.00;;;;5051971;28;20208;-72
2022/10/20 02:35:17;;;;;;;5.83;3.60;;;11.70;99.90;13.20;97675.00;;;;5051606;28;20303;-72
2022/10/20 02:38:07;;;;;;;4.67;3.00;;;11.70;99.90;13.30;97669.00;;;;5036685;28;20330;-72
2022/10/20 02:40:56;;;;;;;6.83;3.10;;;11.70;99.90;13.20;97670.00;;;;5038974;28;20196;-72
2022/10/20 02:43:44;;;;;;;7.13;3.80;;;11.70;99.90;13.10;97666.00;;;;5044193;28;20737;-72
2022/10/20 02:46:33;;;;;;;9.97;3.67;;;11.70;99.90;13.10;97675.00;;;;5041822;28;20232;-72
2022/10/20 02:49:23;;;;;;;5.17;3.63;;;11.70;99.90;13.20;97670.00;;;;5051180;28;20263;-72
2022/10/20 02:52:12;;;;;;;5.90;3.67;;;11.60;99.90;13.20;97664.00;;;;5030124;28;20200;-72
2022/10/20 02:55:04;;;;;;;3.83;3.27;;;11.70;99.90;13.20;97662.00;;;;5048176;28;20220;-72
2022/10/20 02:57:53;;;;;;;5.50;4.30;;;11.70;99.90;13.30;97661.00;;;;5034344;28;20707;-72
2022/10/20 03:00:41;;;;;;;7.00;3.50;;;11.70;99.90;13.30;97670.00;;;;5050734;28;20243;-73
2022/10/20 03:03:30;;;;;;;5.97;3.27;;;11.70;99.90;13.20;97671.00;;;;5047396;28;20197;-72
2022/10/20 03:06:19;;;;;;;4.83;3.27;;;11.70;99.90;13.20;97665.00;;;;5041222;28;20291;-72
2022/10/20 03:09:08;;;;;;;5.40;3.40;;;11.80;99.90;13.20;97671.00;;;;5050805;28;20251;-72
2022/10/20 03:11:58;;;;;;;4.13;3.73;;;11.70;99.90;13.20;97672.00;;;;5043316;28;20267;-72
2022/10/20 03:14:46;;;;;;;6.07;3.37;;;11.70;99.90;13.20;97669.00;;;;5041173;28;20647;-72
2022/10/20 03:17:35;;;;;;;4.30;3.13;;;11.70;99.90;13.10;97675.00;;;;5044178;28;20625;-72
2022/10/20 03:20:24;;;;;;;12.20;4.10;;;11.70;99.90;13.10;97665.00;;;;5048612;28;20791;-73
2022/10/20 03:23:12;;;;;;;3.83;3.37;;;11.70;99.90;13.10;97668.00;;;;5050837;28;20688;-72
2022/10/20 03:26:02;;;;;;;6.60;3.40;;;11.70;99.90;13.00;97671.00;;;;5047212;28;20212;-72
2022/10/20 03:28:52;;;;;;;7.20;3.23;;;11.60;99.90;13.00;97671.00;;;;5034494;28;20280;-72
2022/10/20 03:31:41;;;;;;;9.13;3.00;;;11.60;99.90;13.00;97665.00;;;;5038472;28;20214;-72
2022/10/20 03:34:30;;;;;;;5.87;2.93;;;11.60;99.90;13.00;97663.00;;;;5050566;28;20224;-72
2022/10/20 03:37:19;;;;;;;6.43;3.60;;;11.60;99.90;12.90;97666.00;;;;5045176;28;20205;-72
2022/10/20 03:40:09;;;;;;;10.63;4.67;;;11.60;99.90;12.90;97667.00;;;;5042396;28;20196;-72
2022/10/20 03:42:57;;;;;;;4.90;3.37;;;11.50;99.90;13.00;97670.00;;;;5048056;28;20201;-72
2022/10/20 03:45:48;;;;;;;9.10;3.23;;;11.50;99.90;13.00;97664.00;;;;5050520;28;20224;-72
2022/10/20 03:48:37;;;;;;;5.33;3.67;;;11.50;99.90;12.90;97665.00;;;;5049305;28;20220;-72
2022/10/20 03:51:26;;;;;;;7.63;3.33;;;11.50;99.90;12.90;97677.00;;;;5041376;28;20281;-72
2022/10/20 03:54:15;;;;;;;6.40;2.63;;;11.50;99.90;12.80;97678.00;;;;5042834;28;20243;-72
2022/10/20 03:57:04;;;;;;;10.00;3.80;;;11.50;99.90;12.80;97666.00;;;;5044498;28;20234;-72
2022/10/20 03:59:52;;;;;;;3.93;3.53;;;11.40;99.90;12.80;97674.00;;;;5036053;28;20672;-73
2022/10/20 04:02:45;;;;;;;5.97;3.87;;;11.40;99.90;12.70;97672.00;;;;5046491;28;20205;-72
2022/10/20 04:05:34;;;;;;;3.67;3.27;;;11.40;99.90;12.70;97660.00;;;;5037938;28;20688;-72
2022/10/20 04:08:22;;;;;;;4.90;3.03;;;11.40;99.90;12.70;97669.00;;;;5039493;28;20259;-72
2022/10/20 04:11:11;;;;;;;5.23;3.40;;;11.30;99.90;12.90;97666.00;;;;5040418;28;20204;-72
2022/10/20 04:14:00;;;;;;;5.60;3.33;;;11.30;99.90;12.60;97662.00;;;;5039818;28;20225;-72
2022/10/20 04:16:49;;;;;;;5.10;3.07;;;11.30;99.90;12.60;97666.00;;;;5039945;28;20207;-72
2022/10/20 04:19:39;;;;;;;3.00;2.80;;;11.30;99.90;12.20;97655.00;;;;5038619;28;20317;-72
2022/10/20 04:22:28;;;;;;;7.50;2.87;;;11.20;99.90;12.30;97654.00;;;;5041536;28;20189;-72
2022/10/20 04:25:16;;;;;;;6.30;2.77;;;11.10;99.90;12.40;97648.00;;;;5041828;28;20646;-72
2022/10/20 04:28:05;;;;;;;4.50;3.20;;;11.10;99.90;12.40;97643.00;;;;5048269;28;20278;-72
2022/10/20 04:30:56;;;;;;;4.33;3.77;;;11.10;99.90;12.40;97642.00;;;;5048127;28;20286;-72
2022/10/20 04:33:47;;;;;;;3.17;2.53;;;11.10;99.90;12.40;97651.00;;;;5048585;28;20270;-72
2022/10/20 04:36:37;;;;;;;3.40;3.10;;;11.10;99.90;12.70;97653.00;;;;5042366;28;20201;-72
2022/10/20 04:39:26;;;;;;;5.33;2.87;;;11.10;99.90;12.60;97646.00;;;;5040129;28;20252;-72
2022/10/20 04:42:14;;;;;;;3.30;2.50;;;11.20;99.90;12.60;97645.00;;;;5049557;28;20258;-73
2022/10/20 04:45:04;;;;;;;7.47;6.17;;;11.20;99.90;12.60;97641.00;;;;5049515;28;20314;-72
2022/10/20 04:47:52;;;;;;;5.17;3.13;;;11.20;99.90;12.60;97639.00;;;;5038455;28;20730;-72
2022/10/20 04:50:41;;;;;;;4.50;3.20;;;11.20;99.90;12.50;97634.00;;;;5044747;28;20208;-72
2022/10/20 04:53:31;;;;;;;9.17;4.13;;;11.20;99.90;12.40;97634.00;;;;5039321;28;20208;-73
2022/10/20 04:56:22;;;;;;;3.53;3.23;;;11.20;99.90;12.50;97635.00;;;;5043720;28;20832;-73
2022/10/20 04:59:10;;;;;;;3.33;3.03;;;11.10;99.90;12.30;97641.00;;;;5042204;28;20216;-73
2022/10/20 05:02:00;;;;;;;6.23;4.30;;;11.10;99.90;12.20;97635.00;;;;5047782;28;20219;-73
2022/10/20 05:04:48;;;;;;;9.57;3.50;;;11.10;99.90;12.50;97647.00;;;;5049384;28;20228;-72
2022/10/20 05:07:37;;;;;;;8.65;3.80;;;11.10;99.90;12.60;97639.00;;;;5042247;28;20354;-72
2022/10/20 05:10:27;;;;;;;6.53;3.13;;;11.10;99.90;12.60;97635.00;;;;5047794;28;20266;-72
2022/10/20 05:13:17;;;;;;;3.23;2.73;;;11.10;99.90;12.60;97630.00;;;;5042713;28;20201;-72
2022/10/20 05:16:07;;;;;;;4.90;3.53;;;11.20;99.90;12.70;97625.00;;;;5052854;28;20204;-72
2022/10/20 05:18:56;;;;;;;4.13;3.73;;;11.20;99.90;12.60;97630.00;;;;5052548;28;20254;-72
2022/10/20 05:21:45;;;;;;;3.73;3.23;;;11.20;99.90;12.60;97633.00;;;;5035187;28;20335;-73
2022/10/20 05:24:34;;;;;;;5.87;3.50;;;11.20;99.90;12.60;97627.00;;;;5045601;28;20227;-72
2022/10/20 05:27:25;;;;;;;9.53;3.33;;;11.20;99.90;12.50;97630.00;;;;5045344;28;20227;-73
2022/10/20 05:30:13;;;;;;;8.47;4.13;;;11.20;99.90;12.40;97637.00;;;;5043746;28;20607;-72
2022/10/20 05:33:02;;;;;;;6.10;3.40;;;11.20;99.90;12.50;97635.00;;;;5042366;28;20209;-72
2022/10/20 05:35:51;;;;;;;7.37;4.17;;;11.10;99.90;12.50;97646.00;;;;5043867;28;20620;-72
2022/10/20 05:38:40;;;;;;;7.67;3.80;;;11.10;99.90;12.40;97640.00;;;;5041842;28;20197;-72
2022/10/20 05:41:31;;;;;;;3.60;3.30;;;11.10;99.90;12.30;97643.00;;;;5047617;28;20552;-73
2022/10/20 05:44:22;;;;;;;4.60;4.20;;;11.10;99.90;12.20;97662.00;;;;5047696;28;20220;-73
2022/10/20 05:47:11;;;;;;;5.17;3.70;;;11.00;99.90;12.20;97660.00;;;;5047255;28;20208;-73
2022/10/20 05:49:59;;;;;;;4.47;3.80;;;11.00;99.90;12.50;97666.00;;;;5052441;28;20205;-73
2022/10/20 05:52:48;;;;;;;5.23;3.87;;;11.00;99.90;12.50;97659.00;;;;5052927;28;20294;-72
2022/10/20 05:55:37;;;;;;;7.07;3.50;;;11.00;99.90;12.60;97658.00;;;;5048530;28;20272;-73
2022/10/20 05:58:25;;;;;;;6.17;4.20;;;11.10;99.90;12.40;97656.00;;;;5046259;28;20274;-73
2022/10/20 06:01:22;;;;;;;3.83;3.53;;;11.10;99.90;12.40;97659.00;;;;5047532;28;20232;-72
2022/10/20 06:04:10;;;;;;;6.67;4.07;;;11.10;99.90;12.40;97657.00;;;;5036717;28;20236;-72
2022/10/20 06:06:59;;;;;;;5.27;3.30;;;11.10;99.90;12.70;97656.00;;;;5045141;28;20208;-72
2022/10/20 06:09:48;;;;;;;6.13;3.47;;;11.10;99.90;12.50;97656.00;;;;5040082;28;20279;-72
2022/10/20 06:12:36;;;;;;;5.73;3.43;;;11.10;99.90;12.30;97655.00;;;;5038222;28;20229;-72
2022/10/20 06:15:25;;;;;;;9.13;4.30;;;11.10;99.90;12.50;97670.00;;;;5049351;28;20243;-72
2022/10/20 06:18:16;;;;;;;7.17;3.60;;;11.10;99.90;12.30;97673.00;;;;5051669;28;20255;-71
2022/10/20 06:21:08;;;;;;;7.33;3.70;;;11.10;99.90;12.50;97674.00;;;;5048668;28;20204;-72
2022/10/20 06:24:00;;;;;;;8.23;3.40;;;11.10;99.90;12.30;97679.00;;;;5041739;28;20312;-72
2022/10/20 06:26:50;;;;;;;6.93;3.10;;;11.10;99.90;12.30;97676.00;;;;5044560;28;20206;-72
2022/10/20 06:29:39;;;;;;;6.20;3.23;;;11.10;99.90;12.40;97690.00;;;;5047390;28;20247;-72
2022/10/20 06:32:27;;;;;;;11.43;3.60;;;11.10;99.90;12.30;97690.00;;;;5045420;28;20681;-73
2022/10/20 06:35:17;;;;;;;4.13;3.40;;;11.10;99.90;12.50;97686.00;;;;5049104;28;20237;-72
2022/10/20 06:38:06;;;;;;;5.37;3.17;;;11.10;99.90;12.50;97691.00;;;;5051509;28;20337;-73
2022/10/20 06:40:55;;;;;;;3.43;3.13;;;11.20;99.90;12.50;97693.00;;;;5051634;28;20196;-72
2022/10/20 06:43:45;;;;;;;5.43;2.63;;;11.20;99.90;12.90;97692.00;;;;5051674;28;20203;-72
2022/10/20 06:46:36;;;;;;;2.73;2.47;;;11.20;99.90;13.00;97694.00;;;;5048224;28;20685;-70
2022/10/20 06:49:24;;;;;;;3.40;2.63;;;11.30;99.90;13.10;97688.00;;;;5040418;28;20233;-71
2022/10/20 06:52:14;;;;;;;4.13;2.60;;;11.40;99.90;13.20;97685.00;;;;5044868;28;20205;-69
2022/10/20 06:55:03;;;;;;;4.70;2.63;;;11.50;99.90;13.40;97692.00;;;;5051693;28;20220;-71
2022/10/20 06:57:52;;;;;;;3.75;3.10;;;11.60;99.90;13.30;97697.00;;;;5035841;28;20205;-71
2022/10/20 07:00:41;;;;;;;3.13;2.90;;;11.70;99.90;13.10;97704.00;;;;5041521;28;20261;-71
2022/10/20 07:03:31;;;;;;;3.27;2.60;;;11.70;99.90;13.20;97701.00;;;;5038090;28;20241;-71
2022/10/20 07:06:23;;;;;;;3.40;3.10;;;11.70;99.90;13.20;97694.00;;;;5045811;28;20205;-70
2022/10/20 07:09:16;;;;;;;4.63;2.77;;;11.70;99.90;13.40;97706.00;;;;5043611;28;20212;-71
2022/10/20 07:12:05;;;;;;;3.23;2.83;;;11.80;99.90;13.20;97702.00;;;;5038801;28;20606;-71
2022/10/20 07:14:54;;;;;;;4.97;2.43;;;11.80;99.90;13.10;97698.00;;;;5044963;28;20317;-70
2022/10/20 07:17:43;;;;;;;5.27;2.33;;;11.80;99.90;12.70;97694.00;;;;5043527;28;20318;-73
2022/10/20 07:20:31;;;;;;;3.00;2.70;;;11.70;99.90;12.80;97697.00;;;;5050980;28;20200;-70
2022/10/20 07:23:20;;;;;;;4.30;2.80;;;11.60;99.90;12.70;97697.00;;;;5050689;28;20201;-70
2022/10/20 07:26:14;;;;;;;7.13;2.70;;;11.60;99.90;12.60;97703.00;;;;5051059;28;20196;-71
2022/10/20 07:29:03;;;;;;;5.40;2.50;;;11.60;99.90;12.90;97704.00;;;;5048340;28;20749;-71
2022/10/20 07:31:52;;;;;;;3.83;2.57;;;11.50;99.90;13.40;97709.00;;;;5044596;28;20205;-72
2022/10/20 07:34:41;;;;;;;3.30;2.80;;;11.60;99.90;13.40;97708.00;;;;5041339;28;20251;-72
2022/10/20 07:37:30;;;;;;;3.50;2.60;;;11.70;99.90;13.10;97707.00;;;;5041986;28;20199;-70
2022/10/20 07:40:19;;;;;;;8.67;2.77;;;11.80;99.90;12.80;97715.00;;;;5041432;28;20573;-69
2022/10/20 07:43:09;;;;;;;5.97;2.50;;;11.70;99.90;12.90;97704.00;;;;5046187;28;20213;-72
2022/10/20 07:45:57;;;;;;;3.50;3.03;;;11.70;99.90;12.70;97700.00;;;;5048828;28;20691;-71
2022/10/20 07:48:46;;;;;;;2.53;2.30;;;11.60;99.90;13.20;97702.00;;;;5041470;28;20236;-70
2022/10/20 07:51:35;;;;;;;6.77;2.37;;;11.70;99.90;13.30;97700.00;;;;5040126;28;20575;-71
2022/10/20 07:54:24;;;;;;;7.03;2.43;;;11.80;99.90;13.40;97700.00;;;;5034856;28;20293;-71
2022/10/20 07:57:12;;;;;;;4.43;3.03;;;11.90;99.90;12.60;97696.00;;;;5041792;28;20225;-70
2022/10/20 08:00:03;;;;;;;4.30;2.70;;;11.90;99.90;12.80;97693.00;;;;5042127;28;20240;-68
2022/10/20 08:02:52;;;;;;;3.27;1.97;;;11.80;99.90;12.80;97697.00;;;;5041512;28;20201;-71
2022/10/20 08:05:41;;;;;;;2.57;2.30;;;11.70;99.90;12.70;97687.00;;;;5050308;28;20224;-71
2022/10/20 08:08:29;;;;;;;3.93;2.53;;;11.60;99.90;12.60;97686.00;;;;5043678;28;20215;-69
2022/10/20 08:11:19;;;;;;;2.47;2.23;;;11.60;99.90;12.70;97692.00;;;;5037863;28;20576;-72
2022/10/20 08:14:07;;;;;;;4.47;2.60;;;11.60;99.90;12.80;97693.00;;;;5043381;28;20224;-72
2022/10/20 08:16:57;;;;;;;2.43;2.23;;;11.60;99.90;12.80;97681.00;;;;5038359;28;20737;-70
2022/10/20 08:19:53;;;;;;;6.50;2.67;;;11.60;99.90;13.00;97682.00;;;;5052146;28;20204;-71
2022/10/20 08:22:59;;;;;;;5.80;3.20;;;11.70;99.90;13.10;97686.00;;;;5048514;28;20208;-74
2022/10/20 08:25:47;;;;;;;4.57;2.60;;;11.80;99.90;12.90;97680.00;;;;5046766;28;20433;-70
2022/10/20 08:28:36;;;;;;;3.07;2.33;;;11.70;99.90;13.40;97684.00;;;;5041444;28;20672;-69
2022/10/20 08:31:25;;;;;;;4.80;2.70;;;11.80;99.90;13.70;97677.00;;;;5046280;28;20200;-70
2022/10/20 08:34:15;;;;;;;4.10;2.40;;;11.90;99.90;13.90;97684.00;;;;5048654;28;20235;-70
2022/10/20 08:37:04;;;;;;;2.47;2.27;;;12.10;99.90;13.70;97687.00;;;;5054529;28;20644;-70
2022/10/20 08:39:52;;;;;;;3.87;1.93;;;12.20;99.90;13.10;97674.00;;;;5043844;28;20223;-69
2022/10/20 08:42:44;;;;;;;2.50;2.30;;;12.10;99.90;13.30;97674.00;;;;5035949;28;20223;-71
2022/10/20 08:45:34;;;;;;;3.10;2.33;;;12.10;99.90;13.40;97680.00;;;;5044182;28;20583;-72
2022/10/20 08:48:29;;;;;;;2.93;1.67;;;12.00;99.90;13.40;97682.00;;;;5034924;28;20205;-71
2022/10/20 08:51:23;;;;;;;3.17;2.07;;;12.10;99.90;13.50;97683.00;;;;5033359;28;20201;-73
2022/10/20 08:54:14;;;;;;;1.80;1.70;;;12.10;99.90;12.70;97678.00;;;;5035990;28;20295;-72
2022/10/20 08:57:07;;;;;;;1.90;1.73;;;12.00;99.90;13.40;97682.00;;;;5036773;28;20269;-69
2022/10/20 09:00:03;;;;;;;1.90;1.70;;;12.00;99.90;13.40;97684.00;;;;5039786;28;20266;-69
2022/10/20 09:02:55;;;;;;;3.03;1.77;;;12.10;99.90;13.50;97686.00;;;;5046916;28;20577;-72
2022/10/20 09:05:47;;;;;;;6.00;2.47;;;12.10;99.90;13.40;97687.00;;;;5041656;28;20717;-69
2022/10/20 09:08:40;;;;;;;2.00;1.77;;;12.20;99.90;13.00;97691.00;;;;5043380;28;20270;-72
2022/10/20 09:11:36;;;;;;;2.33;1.43;;;12.10;99.90;13.40;97691.00;;;;5042281;28;20220;-73
2022/10/20 09:14:25;;;;;;;4.47;1.80;;;12.20;99.90;13.30;97690.00;;;;5038169;28;20237;-67
2022/10/20 09:17:17;;;;;;;4.00;2.13;;;12.20;99.90;13.30;97700.00;;;;5039811;28;20209;-72
2022/10/20 09:20:12;;;;;;;4.53;2.07;;;12.20;99.90;13.20;97684.00;;;;5039494;28;20283;-71
2022/10/20 09:23:01;;;;;;;3.10;1.80;;;12.10;99.90;13.30;97687.00;;;;5044794;28;20207;-73
2022/10/20 09:25:53;;;;;;;5.17;1.60;;;12.10;99.90;13.50;97687.00;;;;5039732;28;20225;-70
2022/10/20 09:28:42;;;;;;;5.53;1.93;;;12.20;99.90;13.70;97682.00;;;;5044937;28;20201;-71
2022/10/20 09:31:45;;;;;;;1.93;1.73;;;12.30;99.90;14.00;97674.00;;;;5043084;28;20208;-71
2022/10/20 09:34:35;;;;;;;2.93;2.47;;;12.40;99.90;13.80;97671.00;;;;5047787;28;20216;-72
2022/10/20 09:37:24;;;;;;;2.23;2.03;;;12.50;99.90;13.80;97665.00;;;;5045558;28;20216;-71
2022/10/20 09:40:16;;;;;;;1.73;1.63;;;12.50;99.90;14.00;97660.00;;;;5036707;28;20201;-73
2022/10/20 09:43:14;;;;;;;2.83;1.93;;;12.60;99.90;14.40;97658.00;;;;5039051;28;20219;-72
2022/10/20 09:46:07;;;;;;;1.67;1.47;;;12.70;99.90;14.70;97660.00;;;;5041314;28;20344;-72
2022/10/20 09:48:56;;;;;;;2.87;2.00;;;12.90;99.90;15.20;97661.00;;;;5039518;28;20358;-70
2022/10/20 09:51:48;;;;;;;4.70;2.20;;;13.10;99.90;15.80;97663.00;;;;5049220;28;20630;-72
2022/10/20 09:54:37;;;;;;;5.27;2.47;;;13.30;99.90;15.80;97657.00;;;;5051805;28;20691;-71
2022/10/20 09:57:25;;;;;;;2.70;2.43;;;13.60;99.90;16.00;97658.00;;;;5046193;28;20196;-72
2022/10/20 10:00:27;;;;;;;4.20;2.27;;;13.80;99.90;16.20;97659.00;;;;5049653;28;20212;-72
2022/10/20 10:03:40;;;;;;;3.23;2.90;;;14.00;99.90;15.60;97655.00;;;;5047217;28;20207;-72
2022/10/20 10:06:42;;;;;;;5.27;2.07;;;14.20;99.90;16.10;97644.00;;;;5041343;28;20269;-72
2022/10/20 10:09:33;;;;;;;6.80;2.50;;;14.30;99.90;16.30;97647.00;;;;5042104;28;20192;-71
2022/10/20 10:12:24;;;;;;;3.60;2.60;;;14.40;99.90;16.60;97653.00;;;;5042687;28;20625;-72
2022/10/20 10:15:33;;;;;;;5.20;2.60;;;14.60;99.90;16.50;97647.00;;;;5046297;28;20709;-71
2022/10/20 10:18:23;;;;;;;7.33;2.63;;;14.70;99.90;16.40;97640.00;;;;5038429;28;20227;-72
2022/10/20 10:21:16;;;;;;;6.00;2.30;;;14.70;99.90;16.60;97637.00;;;;5047326;28;20208;-71
2022/10/20 10:24:05;;;;;;;3.23;2.43;;;14.70;99.90;16.50;97634.00;;;;5043006;28;20239;-72
2022/10/20 10:26:55;;;;;;;2.97;2.30;;;14.80;99.90;16.50;97627.00;;;;5046361;28;20262;-72
2022/10/20 10:29:44;;;;;;;3.20;2.57;;;14.80;99.90;16.70;97634.00;;;;5040187;28;20240;-72
2022/10/20 10:32:44;;;;;;;2.93;2.10;;;14.90;99.90;16.50;97630.00;;;;5043373;28;20205;-72
2022/10/20 10:35:38;;;;;;;3.77;2.43;;;14.90;99.90;17.00;97621.00;;;;5042674;28;20296;-71
2022/10/20 10:38:27;;;;;;;2.97;2.67;;;15.00;99.90;17.00;97623.00;;;;5044705;28;20208;-71
2022/10/20 10:41:27;;;;;;;3.33;2.73;;;15.10;99.90;16.80;97618.00;;;;5048687;28;20212;-72
2022/10/20 10:44:30;;;;;;;4.50;2.23;;;15.20;99.90;16.70;97611.00;;;;5036726;28;20686;-72
2022/10/20 10:48:01;;;;;;;5.17;2.87;;;15.20;99.90;17.10;97614.00;;;;5051444;28;20200;-72
2022/10/20 10:50:57;;;;;;;9.67;2.63;;;15.20;99.90;16.90;97611.00;;;;5051434;28;20627;-70
2022/10/20 10:53:59;;;;;;;4.17;2.47;;;15.20;99.90;17.00;97604.00;;;;5050967;28;20331;-70
2022/10/20 10:56:51;;;;;;;4.50;3.20;;;15.30;99.90;17.10;97611.00;;;;5039787;28;20239;-72
2022/10/20 10:59:44;;;;;;;5.57;2.97;;;15.30;99.90;17.10;97605.00;;;;5038786;28;20198;-73
2022/10/20 11:02:59;;;;;;;3.57;2.60;;;15.40;99.90;17.10;97601.00;;;;5041303;28;20196;-72
2022/10/20 11:06:06;;;;;;;5.30;2.83;;;15.40;99.90;17.50;97590.00;;;;5044379;28;20224;-72
2022/10/20 11:09:20;;;;;;;11.33;3.07;;;15.50;99.90;17.40;97593.00;;;;5037932;28;20266;-73
2022/10/20 11:12:50;;;;;;;5.27;2.87;;;15.60;99.90;17.10;97596.00;;;;5050757;28;20220;-73
2022/10/20 11:16:08;;;;;;;7.27;3.13;;;15.60;99.90;17.30;97588.00;;;;5026861;28;20291;-71
2022/10/20 11:19:43;;;;;;;5.63;2.93;;;15.50;99.90;17.40;97582.00;;;;5040525;28;20204;-71
2022/10/20 11:22:44;;;;;;;4.97;2.50;;;15.50;99.90;17.40;97577.00;;;;5042075;28;20619;-72
2022/10/20 11:25:38;;;;;;;6.87;2.73;;;15.60;99.90;17.30;97585.00;;;;5045521;28;20285;-72
2022/10/20 11:28:42;;;;;;;4.63;2.30;;;15.50;99.90;17.30;97580.00;;;;5049656;28;20205;-73
2022/10/20 11:31:38;;;;;;;7.47;2.53;;;15.60;99.90;17.50;97578.00;;;;5045594;28;20691;-72
2022/10/20 11:34:35;;;;;;;5.07;2.80;;;15.60;99.90;17.50;97576.00;;;;5039023;28;20314;-70
2022/10/20 11:37:28;;;;;;;9.13;2.63;;;15.70;99.90;17.60;97578.00;;;;5040069;28;20251;-71
2022/10/20 11:40:23;;;;;;;5.33;2.33;;;15.70;99.90;17.60;97567.00;;;;5039333;28;20220;-70
2022/10/20 11:43:19;;;;;;;4.27;2.80;;;15.80;99.90;17.70;97561.00;;;;5054131;28;20198;-73
2022/10/20 11:46:13;;;;;;;2.70;2.30;;;15.90;99.90;16.20;97556.00;;;;5045870;28;20617;-74
2022/10/20 11:49:03;;;;;;;2.57;2.37;;;15.70;99.90;15.50;97566.00;;;;5047689;28;20210;-72
2022/10/20 11:52:32;;;;;;;6.37;3.30;;;15.20;99.90;15.60;97557.00;;;;5044044;28;20274;-70
2022/10/20 11:55:45;;;;;;;5.67;3.00;;;14.90;99.90;15.90;97538.00;;;;5021878;28;20238;-73
2022/10/20 11:59:03;;;;;;;3.20;2.20;;;14.70;99.90;15.80;97531.00;;;;5046120;28;20197;-70
2022/10/20 12:02:44;;;;;;;4.87;2.17;;;14.70;99.90;15.60;97528.00;;;;5045627;28;20204;-75
2022/10/20 12:06:17;;;;;;;3.83;2.43;;;14.60;99.90;15.80;97518.00;;;;5010551;28;20239;-72
2022/10/20 12:09:42;;;;;;;4.37;2.47;;;14.60;99.90;16.90;97518.00;;;;4988241;28;20755;-69
2022/10/20 12:12:36;;;;;;;7.03;3.07;;;14.70;99.90;17.20;97515.00;;;;5004722;28;20227;-72
2022/10/20 12:15:27;;;;;;;6.00;3.00;;;15.00;99.90;17.40;97505.00;;;;5025930;28;20235;-71
2022/10/20 12:18:27;;;;;;;5.37;2.67;;;15.20;99.90;17.60;97516.00;;;;5039902;28;20591;-71
2022/10/20 12:21:55;;;;;;;7.07;2.33;;;15.50;99.90;17.70;97515.00;;;;5045476;28;20303;-72
2022/10/20 12:25:19;;;;;;;3.70;2.40;;;15.60;99.90;17.60;97527.00;;;;5044828;28;20220;-72
2022/10/20 12:28:41;;;;;;;2.87;2.27;;;15.80;99.90;17.50;97527.00;;;;5047160;28;20211;-71
2022/10/20 12:32:19;;;;;;;3.40;2.60;;;15.80;99.90;16.70;97524.00;;;;5037936;28;20222;-72
2022/10/20 12:36:03;;;;;;;2.47;2.37;;;15.70;99.90;15.90;97524.00;;;;5046919;28;20251;-72
2022/10/20 12:38:54;;;;;;;5.77;3.00;;;15.30;99.90;15.70;97519.00;;;;5018032;28;20209;-73
2022/10/20 12:41:56;;;;;;;6.40;3.40;;;14.90;99.90;15.00;97517.00;;;;5044052;28;20204;-73
2022/10/20 12:44:46;;;;;;;3.50;3.10;;;14.60;99.90;15.10;97520.00;;;;5033069;28;20257;-70
2022/10/20 12:47:37;;;;;;;6.20;3.43;;;14.30;99.90;15.80;97522.00;;;;5040961;28;20238;-71
2022/10/20 12:50:34;;;;;;;2.90;2.60;;;14.30;99.90;15.60;97518.00;;;;5039773;28;20201;-73
2022/10/20 12:53:26;;;;;;;4.20;2.73;;;14.30;99.90;14.90;97515.00;;;;5043729;28;20619;-73